createdAt,value
2017-12-24T18:37:19.406Z,9.67
2017-12-24T18:40:47.512Z,9.07
2017-12-24T18:43:15.189Z,8.80
2017-12-24T18:45:42.892Z,9.77
2017-12-24T18:48:10.489Z,8.77
2017-12-24T18:50:38.927Z,8.83
2017-12-24T18:53:06.495Z,9.03
2017-12-24T18:55:38.051Z,8.60
2017-12-24T18:58:05.834Z,7.90
2017-12-24T19:00:33.385Z,8.27
2017-12-24T19:03:01.019Z,8.23
2017-12-24T19:05:28.627Z,8.43
2017-12-24T19:07:57.020Z,8.77
2017-12-24T19:10:24.581Z,9.53
2017-12-24T19:12:52.885Z,8.63
2017-12-24T19:15:20.536Z,9.40
2017-12-24T19:17:48.174Z,10.00
2017-12-24T19:22:50.596Z,9.27
2017-12-24T19:25:22.172Z,8.40
2017-12-24T19:28:04.686Z,8.33
2017-12-24T19:30:32.464Z,9.30
2017-12-24T19:33:03.994Z,10.73
2017-12-24T19:35:31.577Z,10.40
2017-12-24T19:38:16.909Z,9.00
2017-12-24T19:40:45.523Z,8.50
2017-12-24T19:43:13.141Z,8.57
2017-12-24T19:45:41.651Z,8.80
2017-12-24T19:48:09.829Z,8.33
2017-12-24T19:50:37.975Z,8.90
2017-12-24T19:53:08.396Z,9.33
2017-12-24T19:55:36.651Z,8.37
2017-12-24T19:58:06.277Z,9.73
2017-12-24T20:00:34.284Z,9.20
2017-12-24T20:03:04.768Z,9.90
2017-12-24T20:05:35.348Z,9.93
2017-12-24T20:08:08.400Z,9.90
2017-12-24T20:10:37.194Z,9.77
2017-12-24T20:13:06.690Z,10.63
2017-12-24T20:15:35.230Z,10.93
2017-12-24T20:18:06.480Z,10.33
2017-12-24T20:20:34.193Z,10.50
2017-12-24T20:23:01.787Z,10.37
2017-12-24T20:25:30.161Z,11.30
2017-12-24T20:28:03.509Z,11.97
2017-12-24T20:30:32.304Z,11.50
2017-12-24T20:32:59.867Z,10.90
2017-12-24T20:35:27.470Z,10.47
2017-12-24T20:37:56.887Z,10.03
2017-12-24T20:40:25.207Z,10.23
2017-12-24T20:42:52.816Z,9.70
2017-12-24T20:45:21.207Z,9.57
2017-12-24T20:48:07.453Z,7.10
2017-12-24T20:50:35.167Z,6.63
2017-12-24T20:53:02.854Z,6.20
2017-12-24T20:55:30.438Z,6.47
2017-12-24T20:57:58.046Z,7.03
2017-12-24T21:00:26.578Z,6.10
2017-12-24T21:02:54.765Z,6.47
2017-12-24T21:05:22.417Z,6.27
2017-12-24T21:07:50.033Z,6.00
2017-12-24T21:10:19.139Z,5.70
2017-12-24T21:12:50.868Z,6.40
2017-12-24T21:15:24.650Z,6.30
2017-12-24T21:17:59.949Z,6.63
2017-12-24T21:20:28.424Z,6.00
2017-12-24T21:23:01.037Z,6.60
2017-12-24T21:25:35.971Z,6.33
2017-12-24T21:28:12.120Z,6.00
2017-12-24T21:30:47.940Z,5.90
2017-12-24T21:33:20.006Z,6.43
2017-12-24T21:35:55.828Z,5.77
2017-12-24T21:38:27.149Z,5.33
2017-12-24T21:40:55.648Z,5.03
2017-12-24T21:43:25.868Z,5.00
2017-12-24T21:46:00.554Z,4.53
2017-12-24T21:48:33.069Z,4.33
2017-12-24T21:51:02.370Z,4.10
2017-12-24T21:53:35.451Z,4.13
2017-12-24T21:56:08.068Z,4.10
2017-12-24T21:58:39.289Z,4.30
2017-12-24T22:01:07.406Z,4.00
2017-12-24T22:03:41.951Z,3.97
2017-12-24T22:06:12.344Z,3.70
2017-12-24T22:08:42.819Z,4.20
2017-12-24T22:11:10.783Z,3.90
2017-12-24T22:13:40.892Z,4.23
2017-12-24T22:16:11.832Z,4.20
2017-12-24T22:18:41.754Z,4.63
2017-12-24T22:21:14.663Z,5.10
2017-12-24T22:26:16.074Z,4.43
2017-12-24T22:28:43.672Z,4.90
2017-12-24T22:31:11.280Z,4.97
2017-12-24T22:33:55.243Z,5.40
2017-12-24T22:36:45.851Z,5.33
2017-12-24T23:23:49.011Z,5.27
2017-12-24T23:38:01.234Z,5.43
2017-12-24T23:48:03.376Z,5.33
